createdAt,value
2022-10-08T00:02:47.958Z,12.68
2022-10-08T00:07:49.411Z,12.67
2022-10-08T00:12:50.609Z,12.90
2022-10-08T00:17:51.799Z,12.88
2022-10-08T00:22:53.003Z,12.95
2022-10-08T00:27:54.449Z,12.76
2022-10-08T00:32:59.783Z,12.54
2022-10-08T00:38:01.283Z,12.84
2022-10-08T00:43:03.299Z,12.65
2022-10-08T00:48:04.498Z,12.76
2022-10-08T00:53:06.021Z,12.93
2022-10-08T00:58:07.347Z,12.96
2022-10-08T01:03:08.711Z,12.87
2022-10-08T01:08:10.107Z,12.74
2022-10-08T01:13:11.322Z,12.56
2022-10-08T01:18:12.518Z,12.72
2022-10-08T01:23:13.757Z,12.63
2022-10-08T01:28:15.049Z,12.85
2022-10-08T01:33:16.313Z,12.85
2022-10-08T01:38:17.547Z,12.79
2022-10-08T01:43:18.753Z,12.96
2022-10-08T01:48:20.046Z,13.13
2022-10-08T01:53:21.287Z,13.24
2022-10-08T01:58:28.960Z,13.03
2022-10-08T02:03:30.214Z,13.19
2022-10-08T02:08:31.411Z,13.37
2022-10-08T02:13:33.046Z,13.55
2022-10-08T02:18:34.359Z,13.74
2022-10-08T02:23:35.958Z,13.75
2022-10-08T02:28:37.269Z,13.69
2022-10-08T02:33:38.630Z,13.58
2022-10-08T02:38:39.826Z,13.61
2022-10-08T02:43:41.052Z,13.43
2022-10-08T02:48:42.489Z,13.37
2022-10-08T02:53:45.563Z,13.54
2022-10-08T02:58:46.784Z,13.59
2022-10-08T03:03:48.010Z,13.62
2022-10-08T03:08:49.295Z,13.70
2022-10-08T03:13:50.532Z,13.43
2022-10-08T03:18:52.206Z,13.50
2022-10-08T03:23:53.498Z,13.54
2022-10-08T03:28:54.716Z,13.35
2022-10-08T03:33:55.989Z,13.53
2022-10-08T03:38:57.206Z,13.34
2022-10-08T03:43:59.147Z,13.32
2022-10-08T03:49:00.342Z,13.20
2022-10-08T03:54:01.553Z,13.30
2022-10-08T03:59:03.833Z,13.40
2022-10-08T04:04:05.054Z,13.24
2022-10-08T04:09:06.317Z,13.15
2022-10-08T04:14:07.570Z,12.90
2022-10-08T04:19:08.782Z,12.74
2022-10-08T04:24:10.027Z,12.72
2022-10-08T04:29:12.623Z,12.81
2022-10-08T04:34:13.874Z,12.87
2022-10-08T04:39:15.083Z,12.94
2022-10-08T04:44:16.279Z,12.77
2022-10-08T04:49:19.354Z,12.85
2022-10-08T04:54:20.552Z,12.71
2022-10-08T04:59:21.767Z,12.69
2022-10-08T05:04:22.978Z,12.69
2022-10-08T05:09:24.185Z,12.71
2022-10-08T05:14:25.391Z,12.80
2022-10-08T05:19:26.766Z,12.77
2022-10-08T05:24:27.996Z,12.93
2022-10-08T05:29:30.343Z,12.96
2022-10-08T05:34:31.686Z,12.95
2022-10-08T05:39:32.995Z,13.02
2022-10-08T05:44:37.620Z,12.70
2022-10-08T05:49:39.096Z,12.86
2022-10-08T05:54:40.339Z,12.90
2022-10-08T05:59:41.588Z,12.90
2022-10-08T06:04:42.863Z,12.95
2022-10-08T06:09:45.075Z,12.85
2022-10-08T06:14:46.299Z,12.94
2022-10-08T06:19:47.544Z,13.08
2022-10-08T06:24:48.819Z,13.02
2022-10-08T06:29:50.065Z,12.72
2022-10-08T06:34:52.383Z,12.78
2022-10-08T06:39:53.598Z,13.00
2022-10-08T06:44:58.667Z,13.32
2022-10-08T06:50:02.558Z,13.21
2022-10-08T06:55:03.785Z,13.40
2022-10-08T07:00:04.973Z,13.47
2022-10-08T07:05:06.178Z,13.67
2022-10-08T07:10:09.829Z,13.62
2022-10-08T07:15:11.195Z,13.70
2022-10-08T07:20:12.526Z,13.86
2022-10-08T07:25:13.800Z,13.88
2022-10-08T07:30:15.004Z,13.70
2022-10-08T07:35:16.272Z,13.67
2022-10-08T07:40:17.509Z,13.57
2022-10-08T07:45:18.790Z,13.79
2022-10-08T07:50:44.623Z,13.84
2022-10-08T07:55:45.882Z,13.78
2022-10-08T08:00:47.159Z,13.74
2022-10-08T08:05:48.482Z,13.81
2022-10-08T08:10:50.316Z,13.98
2022-10-08T08:15:51.548Z,14.24
2022-10-08T08:20:54.567Z,13.87
2022-10-08T08:25:55.799Z,14.11
2022-10-08T08:30:57.648Z,14.50
2022-10-08T08:35:58.909Z,15.25
2022-10-08T08:41:00.148Z,15.23
2022-10-08T08:46:01.386Z,15.58
2022-10-08T08:51:04.215Z,16.05
2022-10-08T08:56:05.428Z,16.28
2022-10-08T09:01:06.666Z,15.84
2022-10-08T09:06:09.965Z,15.58
2022-10-08T09:11:11.212Z,15.36
2022-10-08T09:16:12.480Z,15.34
2022-10-08T09:21:13.765Z,15.23
2022-10-08T09:26:15.623Z,14.97
2022-10-08T09:31:16.894Z,14.90
2022-10-08T09:36:18.590Z,15.25
2022-10-08T09:41:19.839Z,15.39
2022-10-08T09:46:21.105Z,15.32
2022-10-08T09:51:22.455Z,15.69
2022-10-08T09:56:27.544Z,15.83
2022-10-08T10:01:31.333Z,15.74
2022-10-08T10:06:37.285Z,15.70
2022-10-08T10:11:38.538Z,15.61
2022-10-08T10:16:39.980Z,15.73
2022-10-08T10:21:46.006Z,15.74
2022-10-08T10:26:47.313Z,15.68
2022-10-08T10:31:48.553Z,15.86
2022-10-08T10:36:49.775Z,16.00
2022-10-08T10:41:51.016Z,16.04
2022-10-08T10:46:52.365Z,16.34
2022-10-08T10:51:53.687Z,16.39
2022-10-08T10:56:54.926Z,16.68
2022-10-08T11:01:56.255Z,16.45
2022-10-08T11:06:57.519Z,16.74
2022-10-08T11:11:58.933Z,16.66
2022-10-08T11:17:00.139Z,16.82
2022-10-08T11:22:01.373Z,16.87
2022-10-08T11:27:02.760Z,17.23
2022-10-08T11:32:03.982Z,17.16
2022-10-08T11:37:05.247Z,17.30
2022-10-08T11:42:06.931Z,17.49
2022-10-08T11:47:08.286Z,17.17
2022-10-08T11:52:09.611Z,17.43
2022-10-08T11:57:11.221Z,17.66
2022-10-08T12:02:12.497Z,17.76
2022-10-08T12:07:13.945Z,18.02
2022-10-08T12:12:15.272Z,17.87
2022-10-08T12:17:16.546Z,17.66
2022-10-08T12:22:17.904Z,17.56
2022-10-08T12:27:19.432Z,17.49
2022-10-08T12:32:20.675Z,17.66
2022-10-08T12:37:25.081Z,17.93
2022-10-08T12:42:26.320Z,17.82
2022-10-08T12:47:27.534Z,17.87
2022-10-08T12:52:30.519Z,17.61
2022-10-08T12:57:33.855Z,17.50
2022-10-08T13:02:37.201Z,17.97
2022-10-08T13:07:38.526Z,18.27
2022-10-08T13:12:50.350Z,18.28
2022-10-08T13:17:55.727Z,18.07
2022-10-08T13:22:56.984Z,17.52
2022-10-08T13:27:58.284Z,17.90
2022-10-08T13:32:59.539Z,18.15
2022-10-08T13:38:00.782Z,17.72
2022-10-08T13:43:02.095Z,17.99
2022-10-08T13:48:03.319Z,17.82
2022-10-08T13:53:04.518Z,17.83
2022-10-08T13:58:05.719Z,17.64
2022-10-08T14:03:06.973Z,17.98
2022-10-08T14:08:08.190Z,18.15
2022-10-08T14:13:09.443Z,18.29
2022-10-08T14:18:10.766Z,18.16
2022-10-08T14:23:11.966Z,18.67
2022-10-08T14:28:13.208Z,18.42
2022-10-08T14:33:14.467Z,18.01
2022-10-08T14:38:15.926Z,17.96
2022-10-08T14:48:42.591Z,17.79
2022-10-08T14:53:43.866Z,17.52
2022-10-08T14:58:45.203Z,17.77
2022-10-08T15:03:46.515Z,17.84
2022-10-08T15:08:49.094Z,17.90
2022-10-08T15:13:50.294Z,18.21
2022-10-08T15:18:51.550Z,17.40
2022-10-08T15:23:52.860Z,17.47
2022-10-08T15:28:54.688Z,17.43
2022-10-08T15:33:56.306Z,17.15
2022-10-08T15:38:57.599Z,16.75
2022-10-08T15:43:58.855Z,16.76
2022-10-08T15:49:02.096Z,16.95
2022-10-08T15:54:03.397Z,17.15
2022-10-08T15:59:04.672Z,18.10
2022-10-08T16:04:05.897Z,18.54
2022-10-08T16:09:07.130Z,18.06
2022-10-08T16:14:08.589Z,17.82
2022-10-08T16:19:09.888Z,17.32
2022-10-08T16:24:11.306Z,17.05
2022-10-08T16:29:12.965Z,16.98
2022-10-08T16:34:14.331Z,16.87
2022-10-08T16:39:15.680Z,16.76
2022-10-08T16:44:16.948Z,17.05
2022-10-08T16:49:23.076Z,17.46
2022-10-08T16:54:25.648Z,17.54
2022-10-08T16:59:26.909Z,17.49
2022-10-08T17:04:28.200Z,17.38
2022-10-08T17:09:29.556Z,17.33
2022-10-08T17:14:33.082Z,16.68
2022-10-08T17:19:34.389Z,15.91
2022-10-08T17:24:40.181Z,14.96
2022-10-08T17:29:43.487Z,15.08
2022-10-08T17:34:44.711Z,14.99
2022-10-08T17:39:45.915Z,15.02
2022-10-08T17:44:47.267Z,14.89
2022-10-08T17:49:48.663Z,14.28
2022-10-08T17:54:49.918Z,14.31
2022-10-08T17:59:51.264Z,14.19
2022-10-08T18:04:52.760Z,14.19
2022-10-08T18:09:54.055Z,13.94
2022-10-08T18:14:55.315Z,13.84
2022-10-08T18:19:56.519Z,13.84
2022-10-08T18:24:57.756Z,13.41
2022-10-08T18:29:58.998Z,13.21
2022-10-08T18:35:00.217Z,12.80
2022-10-08T18:40:01.483Z,12.96
2022-10-08T18:45:02.757Z,13.00
2022-10-08T18:50:03.946Z,13.01
2022-10-08T18:55:05.190Z,13.02
2022-10-08T19:00:06.446Z,12.62
2022-10-08T19:05:07.675Z,12.76
2022-10-08T19:10:08.932Z,12.49
2022-10-08T19:15:10.146Z,12.49
2022-10-08T19:20:11.374Z,12.44
2022-10-08T19:25:12.859Z,12.45
2022-10-08T19:30:15.806Z,12.43
2022-10-08T19:35:17.046Z,12.40
2022-10-08T19:40:18.278Z,12.07
2022-10-08T19:45:19.759Z,11.66
2022-10-08T19:50:21.261Z,12.42
2022-10-08T19:55:22.483Z,12.38
2022-10-08T20:00:23.766Z,12.04
2022-10-08T20:05:25.043Z,12.01
2022-10-08T20:10:26.932Z,11.64
2022-10-08T20:15:28.173Z,11.93
2022-10-08T20:20:33.235Z,11.93
2022-10-08T20:25:38.177Z,11.87
2022-10-08T20:30:39.436Z,11.74
2022-10-08T20:35:40.763Z,11.84
2022-10-08T20:40:48.437Z,11.78
2022-10-08T20:45:52.591Z,11.65
2022-10-08T20:50:53.816Z,11.45
2022-10-08T21:01:41.048Z,10.97
2022-10-08T21:06:42.281Z,11.12
2022-10-08T21:11:45.864Z,11.28
2022-10-08T21:16:47.097Z,11.13
2022-10-08T21:21:48.337Z,11.03
2022-10-08T21:26:49.658Z,10.56
2022-10-08T21:31:54.386Z,10.56
2022-10-08T21:36:55.724Z,11.10
2022-10-08T21:41:56.985Z,11.26
2022-10-08T21:46:58.306Z,11.26
2022-10-08T21:51:59.570Z,11.01
2022-10-08T21:57:00.831Z,11.02
2022-10-08T22:02:02.326Z,10.95
2022-10-08T22:07:05.285Z,10.25
2022-10-08T22:12:07.047Z,10.24
2022-10-08T22:17:08.812Z,10.07
2022-10-08T22:22:10.186Z,10.50
2022-10-08T22:27:11.423Z,10.63
2022-10-08T22:32:13.088Z,10.77
2022-10-08T22:37:14.478Z,10.70
2022-10-08T22:42:15.828Z,10.40
2022-10-08T22:47:17.093Z,10.42
2022-10-08T22:52:18.340Z,10.24
2022-10-08T22:57:19.584Z,10.49
2022-10-08T23:02:20.838Z,10.59
2022-10-08T23:07:22.203Z,10.31
2022-10-08T23:12:23.472Z,9.98
2022-10-08T23:17:24.812Z,10.28
2022-10-08T23:22:26.139Z,9.82
2022-10-08T23:27:27.367Z,9.77
2022-10-08T23:32:28.606Z,9.94
2022-10-08T23:37:29.811Z,10.14
2022-10-08T23:42:31.022Z,10.14
2022-10-08T23:47:32.254Z,9.86
2022-10-08T23:52:33.483Z,9.72
2022-10-08T23:57:34.710Z,9.92
